sensor_id;sensor_type;location;lat;lon;timestamp;pressure;altitude;pressure_sealevel;temperature;humidity
38900;BME280;24660;43.238;26.576;2022-10-16T00:00:18;100227.50;;;5.39;100.00
38900;BME280;24660;43.238;26.576;2022-10-16T00:02:46;100227.75;;;5.32;100.00
38900;BME280;24660;43.238;26.576;2022-10-16T00:05:11;100230.47;;;5.31;100.00
38900;BME280;24660;43.238;26.576;2022-10-16T00:07:37;100232.44;;;5.27;100.00
38900;BME280;24660;43.238;26.576;2022-10-16T00:10:02;100230.47;;;5.31;100.00
38900;BME280;24660;43.238;26.576;2022-10-16T00:12:28;100224.81;;;5.20;100.00
38900;BME280;24660;43.238;26.576;2022-10-16T00:14:53;100227.28;;;5.24;100.00
38900;BME280;24660;43.238;26.576;2022-10-16T00:17:19;100239.53;;;5.27;100.00
38900;BME280;24660;43.238;26.576;2022-10-16T00:19:44;100241.94;;;5.31;100.00
38900;BME280;24660;43.238;26.576;2022-10-16T00:22:10;100243.09;;;5.45;100.00
38900;BME280;24660;43.238;26.576;2022-10-16T00:24:36;100239.41;;;5.85;100.00
38900;BME280;24660;43.238;26.576;2022-10-16T00:27:02;100232.84;;;5.56;100.00
38900;BME280;24660;43.238;26.576;2022-10-16T00:29:27;100235.28;;;5.42;100.00
38900;BME280;24660;43.238;26.576;2022-10-16T00:31:52;100237.88;;;5.24;100.00
38900;BME280;24660;43.238;26.576;2022-10-16T00:34:18;100240.78;;;5.18;100.00
38900;BME280;24660;43.238;26.576;2022-10-16T00:36:43;100233.91;;;5.14;100.00
38900;BME280;24660;43.238;26.576;2022-10-16T00:39:09;100241.94;;;5.13;100.00
38900;BME280;24660;43.238;26.576;2022-10-16T00:41:37;100238.25;;;5.35;100.00
38900;BME280;24660;43.238;26.576;2022-10-16T00:47:03;100231.69;;;5.05;100.00
38900;BME280;24660;43.238;26.576;2022-10-16T00:49:29;100238.91;;;5.01;100.00
38900;BME280;24660;43.238;26.576;2022-10-16T00:51:55;100245.69;;;4.88;100.00
38900;BME280;24660;43.238;26.576;2022-10-16T00:54:25;100254.78;;;4.83;100.00
38900;BME280;24660;43.238;26.576;2022-10-16T00:56:52;100256.44;;;5.24;100.00
38900;BME280;24660;43.238;26.576;2022-10-16T00:59:29;100246.38;;;5.31;100.00
38900;BME280;24660;43.238;26.576;2022-10-16T01:01:56;100244.81;;;5.27;100.00
38900;BME280;24660;43.238;26.576;2022-10-16T01:04:25;100249.81;;;5.14;100.00
38900;BME280;24660;43.238;26.576;2022-10-16T01:09:27;100253.06;;;4.82;100.00
38900;BME280;24660;43.238;26.576;2022-10-16T01:13:06;100264.84;;;4.95;100.00
38900;BME280;24660;43.238;26.576;2022-10-16T01:15:02;100261.28;;;5.33;100.00
38900;BME280;24660;43.238;26.576;2022-10-16T01:17:37;100258.63;;;5.15;100.00
38900;BME280;24660;43.238;26.576;2022-10-16T01:22:46;100257.44;;;4.83;100.00
38900;BME280;24660;43.238;26.576;2022-10-16T01:25:23;100263.34;;;4.69;100.00
38900;BME280;24660;43.238;26.576;2022-10-16T01:27:51;100266.63;;;4.74;100.00
38900;BME280;24660;43.238;26.576;2022-10-16T01:30:22;100267.56;;;4.73;100.00
38900;BME280;24660;43.238;26.576;2022-10-16T01:32:55;100273.34;;;4.83;100.00
38900;BME280;24660;43.238;26.576;2022-10-16T01:35:25;100270.41;;;4.68;100.00
38900;BME280;24660;43.238;26.576;2022-10-16T01:40:52;100269.88;;;4.60;100.00
38900;BME280;24660;43.238;26.576;2022-10-16T01:43:27;100275.78;;;4.67;100.00
38900;BME280;24660;43.238;26.576;2022-10-16T01:45:57;100280.94;;;4.50;100.00
38900;BME280;24660;43.238;26.576;2022-10-16T01:48:24;100276.50;;;4.50;100.00
38900;BME280;24660;43.238;26.576;2022-10-16T01:50:56;100280.75;;;4.54;100.00
38900;BME280;24660;43.238;26.576;2022-10-16T01:53:23;100276.91;;;4.61;100.00
38900;BME280;24660;43.238;26.576;2022-10-16T01:55:50;100278.38;;;4.68;100.00
38900;BME280;24660;43.238;26.576;2022-10-16T01:58:17;100284.19;;;4.56;100.00
38900;BME280;24660;43.238;26.576;2022-10-16T02:00:44;100279.41;;;4.64;100.00
38900;BME280;24660;43.238;26.576;2022-10-16T02:03:12;100280.66;;;4.76;100.00
38900;BME280;24660;43.238;26.576;2022-10-16T02:05:57;100277.03;;;4.58;100.00
38900;BME280;24660;43.238;26.576;2022-10-16T02:08:27;100283.84;;;4.64;100.00
38900;BME280;24660;43.238;26.576;2022-10-16T02:10:59;100288.28;;;4.84;100.00
38900;BME280;24660;43.238;26.576;2022-10-16T02:13:30;100278.22;;;4.71;100.00
38900;BME280;24660;43.238;26.576;2022-10-16T02:15:56;100274.91;;;5.07;100.00
38900;BME280;24660;43.238;26.576;2022-10-16T02:18:22;100279.75;;;5.16;100.00
38900;BME280;24660;43.238;26.576;2022-10-16T02:20:53;100267.50;;;4.74;100.00
38900;BME280;24660;43.238;26.576;2022-10-16T02:26:13;100268.56;;;4.50;100.00
38900;BME280;24660;43.238;26.576;2022-10-16T02:28:45;100269.75;;;4.43;100.00
38900;BME280;24660;43.238;26.576;2022-10-16T02:31:16;100278.88;;;4.36;100.00
38900;BME280;24660;43.238;26.576;2022-10-16T02:33:46;100279.25;;;4.27;100.00
38900;BME280;24660;43.238;26.576;2022-10-16T02:36:11;100280.31;;;4.23;100.00
38900;BME280;24660;43.238;26.576;2022-10-16T02:38:37;100289.97;;;4.24;100.00
38900;BME280;24660;43.238;26.576;2022-10-16T02:41:03;100294.75;;;4.36;100.00
38900;BME280;24660;43.238;26.576;2022-10-16T02:43:29;100296.28;;;4.41;100.00
38900;BME280;24660;43.238;26.576;2022-10-16T02:45:54;100291.44;;;4.31;100.00
38900;BME280;24660;43.238;26.576;2022-10-16T02:48:20;100299.75;;;4.22;100.00
38900;BME280;24660;43.238;26.576;2022-10-16T02:50:45;100295.16;;;4.47;100.00
38900;BME280;24660;43.238;26.576;2022-10-16T02:53:11;100297.34;;;4.37;100.00
38900;BME280;24660;43.238;26.576;2022-10-16T02:55:38;100306.03;;;4.19;100.00
38900;BME280;24660;43.238;26.576;2022-10-16T02:58:04;100312.88;;;4.25;100.00
38900;BME280;24660;43.238;26.576;2022-10-16T03:00:29;100313.44;;;4.11;100.00
38900;BME280;24660;43.238;26.576;2022-10-16T03:02:54;100316.16;;;4.09;100.00
38900;BME280;24660;43.238;26.576;2022-10-16T03:05:20;100320.69;;;4.28;100.00
38900;BME280;24660;43.238;26.576;2022-10-16T03:07:45;100319.91;;;4.46;100.00
38900;BME280;24660;43.238;26.576;2022-10-16T03:10:10;100316.84;;;4.35;100.00
38900;BME280;24660;43.238;26.576;2022-10-16T03:12:36;100318.09;;;4.26;100.00
38900;BME280;24660;43.238;26.576;2022-10-16T03:15:01;100313.38;;;4.55;100.00
38900;BME280;24660;43.238;26.576;2022-10-16T03:17:26;100313.44;;;4.53;100.00
38900;BME280;24660;43.238;26.576;2022-10-16T03:19:52;100316.88;;;4.75;100.00
38900;BME280;24660;43.238;26.576;2022-10-16T03:22:17;100308.25;;;4.50;100.00
38900;BME280;24660;43.238;26.576;2022-10-16T03:24:42;100306.94;;;4.60;100.00
38900;BME280;24660;43.238;26.576;2022-10-16T03:27:08;100309.47;;;4.43;100.00
38900;BME280;24660;43.238;26.576;2022-10-16T03:29:33;100313.41;;;4.33;100.00
38900;BME280;24660;43.238;26.576;2022-10-16T03:31:58;100300.31;;;4.30;100.00
38900;BME280;24660;43.238;26.576;2022-10-16T03:34:24;100304.25;;;4.20;100.00
38900;BME280;24660;43.238;26.576;2022-10-16T03:36:50;100304.88;;;4.26;100.00
38900;BME280;24660;43.238;26.576;2022-10-16T03:39:15;100309.47;;;4.21;100.00
38900;BME280;24660;43.238;26.576;2022-10-16T03:41:41;100313.13;;;3.97;100.00
38900;BME280;24660;43.238;26.576;2022-10-16T03:44:06;100321.88;;;3.99;100.00
38900;BME280;24660;43.238;26.576;2022-10-16T03:46:31;100318.59;;;4.14;100.00
38900;BME280;24660;43.238;26.576;2022-10-16T03:48:57;100322.41;;;4.07;100.00
38900;BME280;24660;43.238;26.576;2022-10-16T03:51:22;100325.38;;;3.99;100.00
38900;BME280;24660;43.238;26.576;2022-10-16T03:53:47;100325.72;;;3.90;100.00
38900;BME280;24660;43.238;26.576;2022-10-16T03:56:13;100325.50;;;3.96;100.00
38900;BME280;24660;43.238;26.576;2022-10-16T03:58:38;100325.34;;;4.21;100.00
38900;BME280;24660;43.238;26.576;2022-10-16T04:01:03;100325.38;;;3.99;100.00
38900;BME280;24660;43.238;26.576;2022-10-16T04:03:29;100325.66;;;3.92;100.00
38900;BME280;24660;43.238;26.576;2022-10-16T04:05:54;100321.69;;;3.81;100.00
38900;BME280;24660;43.238;26.576;2022-10-16T04:08:19;100322.75;;;3.76;100.00
38900;BME280;24660;43.238;26.576;2022-10-16T04:10:45;100332.94;;;4.08;100.00
38900;BME280;24660;43.238;26.576;2022-10-16T04:13:10;100322.69;;;4.21;100.00
38900;BME280;24660;43.238;26.576;2022-10-16T04:15:36;100321.53;;;4.06;100.00
38900;BME280;24660;43.238;26.576;2022-10-16T04:18:01;100324.75;;;4.14;100.00
38900;BME280;24660;43.238;26.576;2022-10-16T04:20:26;100328.22;;;3.93;100.00
38900;BME280;24660;43.238;26.576;2022-10-16T04:22:52;100322.53;;;3.82;100.00
38900;BME280;24660;43.238;26.576;2022-10-16T04:25:18;100329.75;;;3.77;100.00
38900;BME280;24660;43.238;26.576;2022-10-16T04:27:43;100324.09;;;3.64;100.00
38900;BME280;24660;43.238;26.576;2022-10-16T04:30:08;100334.44;;;3.70;100.00
38900;BME280;24660;43.238;26.576;2022-10-16T04:32:34;100323.63;;;3.76;100.00
38900;BME280;24660;43.238;26.576;2022-10-16T04:34:59;100338.75;;;3.73;100.00
38900;BME280;24660;43.238;26.576;2022-10-16T04:37:26;100342.06;;;3.78;100.00
38900;BME280;24660;43.238;26.576;2022-10-16T04:39:52;100344.72;;;3.78;100.00
38900;BME280;24660;43.238;26.576;2022-10-16T04:42:18;100346.66;;;3.96;100.00
38900;BME280;24660;43.238;26.576;2022-10-16T04:44:43;100350.06;;;3.76;100.00
38900;BME280;24660;43.238;26.576;2022-10-16T04:47:08;100347.63;;;3.94;100.00
38900;BME280;24660;43.238;26.576;2022-10-16T04:49:34;100358.63;;;4.05;100.00
38900;BME280;24660;43.238;26.576;2022-10-16T04:51:59;100355.25;;;4.01;100.00
38900;BME280;24660;43.238;26.576;2022-10-16T04:54:24;100356.31;;;3.97;100.00
38900;BME280;24660;43.238;26.576;2022-10-16T04:56:50;100353.66;;;3.97;100.00
38900;BME280;24660;43.238;26.576;2022-10-16T04:59:17;100349.13;;;4.01;100.00
38900;BME280;24660;43.238;26.576;2022-10-16T05:01:42;100352.81;;;4.18;100.00
38900;BME280;24660;43.238;26.576;2022-10-16T05:04:08;100357.09;;;4.21;100.00
38900;BME280;24660;43.238;26.576;2022-10-16T05:06:33;100366.34;;;4.75;100.00
38900;BME280;24660;43.238;26.576;2022-10-16T05:08:59;100366.63;;;4.47;100.00
38900;BME280;24660;43.238;26.576;2022-10-16T05:11:24;100369.16;;;4.50;100.00
38900;BME280;24660;43.238;26.576;2022-10-16T05:13:49;100368.91;;;4.56;100.00
38900;BME280;24660;43.238;26.576;2022-10-16T05:16:15;100366.84;;;4.42;100.00
38900;BME280;24660;43.238;26.576;2022-10-16T05:18:40;100370.13;;;4.47;100.00
38900;BME280;24660;43.238;26.576;2022-10-16T05:21:05;100368.63;;;4.84;100.00
38900;BME280;24660;43.238;26.576;2022-10-16T05:23:31;100369.72;;;4.58;100.00
38900;BME280;24660;43.238;26.576;2022-10-16T05:25:56;100373.19;;;4.81;100.00
38900;BME280;24660;43.238;26.576;2022-10-16T05:28:24;100387.38;;;4.80;100.00
38900;BME280;24660;43.238;26.576;2022-10-16T05:30:49;100380.06;;;5.05;100.00
38900;BME280;24660;43.238;26.576;2022-10-16T05:33:15;100377.63;;;5.21;100.00
38900;BME280;24660;43.238;26.576;2022-10-16T05:35:40;100379.69;;;5.14;100.00
38900;BME280;24660;43.238;26.576;2022-10-16T05:38:05;100376.63;;;5.23;100.00
38900;BME280;24660;43.238;26.576;2022-10-16T05:40:31;100388.13;;;5.82;100.00
38900;BME280;24660;43.238;26.576;2022-10-16T05:42:56;100383.44;;;6.43;100.00
38900;BME280;24660;43.238;26.576;2022-10-16T05:45:21;100376.56;;;6.39;100.00
38900;BME280;24660;43.238;26.576;2022-10-16T05:47:49;100369.56;;;6.73;100.00
38900;BME280;24660;43.238;26.576;2022-10-16T05:50:15;100371.28;;;6.57;100.00
38900;BME280;24660;43.238;26.576;2022-10-16T05:52:40;100374.88;;;6.73;100.00
38900;BME280;24660;43.238;26.576;2022-10-16T05:55:06;100378.97;;;6.97;100.00
38900;BME280;24660;43.238;26.576;2022-10-16T05:57:31;100374.75;;;7.10;100.00
38900;BME280;24660;43.238;26.576;2022-10-16T05:59:56;100371.72;;;7.51;100.00
38900;BME280;24660;43.238;26.576;2022-10-16T06:02:22;100370.50;;;7.90;100.00
38900;BME280;24660;43.238;26.576;2022-10-16T06:04:47;100377.53;;;8.22;100.00
38900;BME280;24660;43.238;26.576;2022-10-16T06:07:12;100378.25;;;8.42;100.00
38900;BME280;24660;43.238;26.576;2022-10-16T06:09:38;100361.38;;;8.57;100.00
38900;BME280;24660;43.238;26.576;2022-10-16T06:12:03;100367.78;;;8.99;100.00
38900;BME280;24660;43.238;26.576;2022-10-16T06:14:29;100366.88;;;9.14;100.00
38900;BME280;24660;43.238;26.576;2022-10-16T06:16:54;100364.41;;;9.11;100.00
38900;BME280;24660;43.238;26.576;2022-10-16T06:19:19;100361.00;;;9.23;100.00
38900;BME280;24660;43.238;26.576;2022-10-16T06:21:45;100376.66;;;8.69;100.00
38900;BME280;24660;43.238;26.576;2022-10-16T06:24:10;100370.75;;;8.94;100.00
38900;BME280;24660;43.238;26.576;2022-10-16T06:26:36;100378.59;;;8.81;100.00
38900;BME280;24660;43.238;26.576;2022-10-16T06:29:02;100381.09;;;9.43;100.00
38900;BME280;24660;43.238;26.576;2022-10-16T06:31:28;100377.53;;;9.58;100.00
38900;BME280;24660;43.238;26.576;2022-10-16T06:33:55;100385.44;;;9.74;100.00
38900;BME280;24660;43.238;26.576;2022-10-16T06:36:21;100382.13;;;10.11;100.00
38900;BME280;24660;43.238;26.576;2022-10-16T06:38:47;100385.91;;;10.50;100.00
38900;BME280;24660;43.238;26.576;2022-10-16T06:41:14;100390.91;;;11.21;100.00
38900;BME280;24660;43.238;26.576;2022-10-16T06:43:40;100378.06;;;11.39;100.00
38900;BME280;24660;43.238;26.576;2022-10-16T06:46:06;100387.63;;;11.94;100.00
38900;BME280;24660;43.238;26.576;2022-10-16T06:48:33;100393.72;;;12.45;100.00
38900;BME280;24660;43.238;26.576;2022-10-16T06:53:24;100398.09;;;12.94;97.11
38900;BME280;24660;43.238;26.576;2022-10-16T06:55:49;100394.63;;;12.57;96.35
38900;BME280;24660;43.238;26.576;2022-10-16T06:58:15;100401.47;;;12.61;96.05
38900;BME280;24660;43.238;26.576;2022-10-16T07:00:40;100391.91;;;13.29;94.93
38900;BME280;24660;43.238;26.576;2022-10-16T07:03:08;100404.06;;;13.68;92.00
38900;BME280;24660;43.238;26.576;2022-10-16T07:05:37;100410.31;;;13.69;90.36
38900;BME280;24660;43.238;26.576;2022-10-16T07:08:03;100414.06;;;13.77;90.18
38900;BME280;24660;43.238;26.576;2022-10-16T07:10:30;100419.00;;;13.83;88.42
38900;BME280;24660;43.238;26.576;2022-10-16T07:12:56;100422.38;;;13.74;87.71
38900;BME280;24660;43.238;26.576;2022-10-16T07:15:21;100422.31;;;13.29;86.42
38900;BME280;24660;43.238;26.576;2022-10-16T07:17:46;100431.31;;;13.86;84.93
38900;BME280;24660;43.238;26.576;2022-10-16T07:20:12;100431.56;;;13.83;76.68
38900;BME280;24660;43.238;26.576;2022-10-16T07:22:37;100427.78;;;13.85;74.76
38900;BME280;24660;43.238;26.576;2022-10-16T07:25:02;100425.53;;;13.57;75.77
38900;BME280;24660;43.238;26.576;2022-10-16T07:27:28;100432.06;;;14.10;72.49
38900;BME280;24660;43.238;26.576;2022-10-16T07:29:53;100435.00;;;14.52;75.67
38900;BME280;24660;43.238;26.576;2022-10-16T07:32:18;100430.06;;;14.68;72.68
38900;BME280;24660;43.238;26.576;2022-10-16T07:34:44;100437.84;;;14.94;69.86
38900;BME280;24660;43.238;26.576;2022-10-16T07:37:10;100434.84;;;15.29;69.17
38900;BME280;24660;43.238;26.576;2022-10-16T07:39:36;100435.53;;;15.21;68.29
38900;BME280;24660;43.238;26.576;2022-10-16T07:42:03;100428.69;;;14.74;64.29
38900;BME280;24660;43.238;26.576;2022-10-16T07:44:28;100430.22;;;14.55;64.18
38900;BME280;24660;43.238;26.576;2022-10-16T07:46:54;100428.91;;;14.50;64.25
38900;BME280;24660;43.238;26.576;2022-10-16T07:49:19;100436.91;;;14.61;64.45
38900;BME280;24660;43.238;26.576;2022-10-16T07:51:44;100436.91;;;14.61;62.97
38900;BME280;24660;43.238;26.576;2022-10-16T07:54:10;100450.19;;;14.96;62.73
38900;BME280;24660;43.238;26.576;2022-10-16T07:56:35;100441.31;;;14.62;63.40
38900;BME280;24660;43.238;26.576;2022-10-16T07:59:00;100437.91;;;15.03;63.34
38900;BME280;24660;43.238;26.576;2022-10-16T08:01:26;100438.66;;;15.26;61.09
38900;BME280;24660;43.238;26.576;2022-10-16T08:03:51;100431.50;;;15.57;59.92
38900;BME280;24660;43.238;26.576;2022-10-16T08:06:17;100440.59;;;15.35;61.46
38900;BME280;24660;43.238;26.576;2022-10-16T08:08:43;100439.75;;;15.56;59.92
38900;BME280;24660;43.238;26.576;2022-10-16T08:11:08;100444.13;;;15.57;58.73
38900;BME280;24660;43.238;26.576;2022-10-16T08:13:34;100447.06;;;15.65;58.02
38900;BME280;24660;43.238;26.576;2022-10-16T08:16:00;100441.13;;;15.50;57.86
38900;BME280;24660;43.238;26.576;2022-10-16T08:18:25;100437.72;;;15.69;57.71
38900;BME280;24660;43.238;26.576;2022-10-16T08:20:58;100448.22;;;15.93;56.51
38900;BME280;24660;43.238;26.576;2022-10-16T08:23:25;100450.47;;;15.88;56.28
38900;BME280;24660;43.238;26.576;2022-10-16T08:25:51;100450.47;;;15.88;57.18
38900;BME280;24660;43.238;26.576;2022-10-16T08:28:19;100431.41;;;15.38;57.70
38900;BME280;24660;43.238;26.576;2022-10-16T08:30:44;100445.00;;;15.36;58.67
38900;BME280;24660;43.238;26.576;2022-10-16T08:33:09;100433.28;;;15.89;56.68
38900;BME280;24660;43.238;26.576;2022-10-16T08:35:35;100433.09;;;16.42;55.37
38900;BME280;24660;43.238;26.576;2022-10-16T08:38:02;100434.78;;;16.33;55.74
38900;BME280;24660;43.238;26.576;2022-10-16T08:40:28;100442.00;;;16.73;55.49
38900;BME280;24660;43.238;26.576;2022-10-16T08:50:51;100438.06;;;16.77;53.69
38900;BME280;24660;43.238;26.576;2022-10-16T08:53:26;100432.81;;;16.45;53.26
38900;BME280;24660;43.238;26.576;2022-10-16T08:55:53;100426.63;;;16.63;51.96
38900;BME280;24660;43.238;26.576;2022-10-16T08:58:21;100435.66;;;17.03;50.99
38900;BME280;24660;43.238;26.576;2022-10-16T09:00:48;100435.94;;;17.00;51.58
38900;BME280;24660;43.238;26.576;2022-10-16T09:08:28;100432.09;;;16.83;50.04
38900;BME280;24660;43.238;26.576;2022-10-16T09:10:59;100422.69;;;16.87;50.21
38900;BME280;24660;43.238;26.576;2022-10-16T09:13:33;100437.47;;;16.73;50.80
38900;BME280;24660;43.238;26.576;2022-10-16T09:18:52;100439.34;;;17.40;49.29
38900;BME280;24660;43.238;26.576;2022-10-16T09:21:21;100438.94;;;17.26;48.67
38900;BME280;24660;43.238;26.576;2022-10-16T09:23:48;100437.53;;;17.21;48.33
38900;BME280;24660;43.238;26.576;2022-10-16T09:26:14;100443.34;;;17.27;48.89
38900;BME280;24660;43.238;26.576;2022-10-16T09:28:41;100440.94;;;17.24;48.80
38900;BME280;24660;43.238;26.576;2022-10-16T09:31:10;100440.22;;;17.21;47.96
38900;BME280;24660;43.238;26.576;2022-10-16T09:33:38;100431.22;;;17.79;47.78
38900;BME280;24660;43.238;26.576;2022-10-16T09:36:04;100427.25;;;17.64;47.62
38900;BME280;24660;43.238;26.576;2022-10-16T09:38:33;100429.84;;;17.46;48.02
38900;BME280;24660;43.238;26.576;2022-10-16T09:41:00;100427.97;;;17.37;48.61
38900;BME280;24660;43.238;26.576;2022-10-16T09:43:32;100428.41;;;17.23;47.50
38900;BME280;24660;43.238;26.576;2022-10-16T09:46:02;100428.09;;;17.55;47.71
38900;BME280;24660;43.238;26.576;2022-10-16T09:48:31;100419.72;;;17.48;46.73
38900;BME280;24660;43.238;26.576;2022-10-16T09:51:01;100425.13;;;17.29;46.57
38900;BME280;24660;43.238;26.576;2022-10-16T09:53:37;100431.53;;;17.37;46.88
38900;BME280;24660;43.238;26.576;2022-10-16T09:56:03;100433.41;;;17.08;47.49
38900;BME280;24660;43.238;26.576;2022-10-16T09:58:31;100423.00;;;17.23;45.68
38900;BME280;24660;43.238;26.576;2022-10-16T10:00:58;100429.53;;;17.01;45.83
38900;BME280;24660;43.238;26.576;2022-10-16T10:06:06;100422.88;;;17.34;46.00
38900;BME280;24660;43.238;26.576;2022-10-16T10:08:39;100422.56;;;17.27;45.61
38900;BME280;24660;43.238;26.576;2022-10-16T10:11:05;100413.59;;;17.75;43.99
38900;BME280;24660;43.238;26.576;2022-10-16T10:13:30;100415.00;;;17.69;46.44
38900;BME280;24660;43.238;26.576;2022-10-16T10:15:56;100411.88;;;17.64;46.63
38900;BME280;24660;43.238;26.576;2022-10-16T10:18:24;100407.03;;;17.77;44.09
38900;BME280;24660;43.238;26.576;2022-10-16T10:20:58;100406.72;;;17.80;44.65
38900;BME280;24660;43.238;26.576;2022-10-16T10:23:25;100412.13;;;17.80;45.69
38900;BME280;24660;43.238;26.576;2022-10-16T10:31:15;100409.22;;;18.01;45.35
38900;BME280;24660;43.238;26.576;2022-10-16T10:49:07;100391.13;;;18.29;45.21
38900;BME280;24660;43.238;26.576;2022-10-16T10:56:57;100386.34;;;18.23;46.39
38900;BME280;24660;43.238;26.576;2022-10-16T11:07:30;100381.03;;;18.04;45.81
38900;BME280;24660;43.238;26.576;2022-10-16T11:09:58;100383.06;;;17.92;46.33
38900;BME280;24660;43.238;26.576;2022-10-16T11:12:31;100384.53;;;18.14;45.49
38900;BME280;24660;43.238;26.576;2022-10-16T11:17:27;100389.53;;;18.09;45.55
38900;BME280;24660;43.238;26.576;2022-10-16T11:19:56;100390.56;;;18.35;45.07
38900;BME280;24660;43.238;26.576;2022-10-16T11:22:26;100381.72;;;18.33;44.37
38900;BME280;24660;43.238;26.576;2022-10-16T11:24:59;100384.81;;;18.38;44.56
38900;BME280;24660;43.238;26.576;2022-10-16T11:30:12;100383.75;;;18.31;44.53
38900;BME280;24660;43.238;26.576;2022-10-16T11:32:43;100386.72;;;18.56;45.20
38900;BME280;24660;43.238;26.576;2022-10-16T11:37:53;100381.72;;;18.33;44.90
38900;BME280;24660;43.238;26.576;2022-10-16T11:40:24;100386.72;;;18.56;43.67
38900;BME280;24660;43.238;26.576;2022-10-16T11:42:54;100387.69;;;18.64;43.52
38900;BME280;24660;43.238;26.576;2022-10-16T11:50:38;100400.56;;;18.53;44.71
38900;BME280;24660;43.238;26.576;2022-10-16T11:53:21;100397.53;;;18.56;43.79
38900;BME280;24660;43.238;26.576;2022-10-16T11:55:49;100393.66;;;18.40;44.24
38900;BME280;24660;43.238;26.576;2022-10-16T11:58:25;100388.34;;;18.21;45.12
38900;BME280;24660;43.238;26.576;2022-10-16T12:01:01;100386.44;;;18.59;44.41
38900;BME280;24660;43.238;26.576;2022-10-16T12:06:12;100378.13;;;17.78;45.67
38900;BME280;24660;43.238;26.576;2022-10-16T12:08:38;100392.38;;;17.61;45.67
38900;BME280;24660;43.238;26.576;2022-10-16T12:11:08;100395.34;;;17.77;45.29
38900;BME280;24660;43.238;26.576;2022-10-16T12:13:35;100399.63;;;18.17;44.70
38900;BME280;24660;43.238;26.576;2022-10-16T12:18:43;100394.34;;;18.70;42.29
38900;BME280;24660;43.238;26.576;2022-10-16T12:21:09;100393.06;;;18.47;42.88
38900;BME280;24660;43.238;26.576;2022-10-16T12:23:37;100401.59;;;18.42;43.01
38900;BME280;24660;43.238;26.576;2022-10-16T12:26:03;100402.09;;;18.65;42.84
38900;BME280;24660;43.238;26.576;2022-10-16T12:28:29;100405.50;;;18.67;43.94
38900;BME280;24660;43.238;26.576;2022-10-16T12:30:58;100402.38;;;18.62;43.05
38900;BME280;24660;43.238;26.576;2022-10-16T12:33:28;100394.97;;;18.36;43.89
38900;BME280;24660;43.238;26.576;2022-10-16T12:35:54;100398.34;;;17.64;45.26
38900;BME280;24660;43.238;26.576;2022-10-16T12:40:54;100402.03;;;17.83;44.57
38900;BME280;24660;43.238;26.576;2022-10-16T12:45:45;100391.59;;;18.25;42.33
38900;BME280;24660;43.238;26.576;2022-10-16T12:48:20;100393.50;;;18.15;42.68
38900;BME280;24660;43.238;26.576;2022-10-16T12:50:46;100397.31;;;18.22;42.57
38900;BME280;24660;43.238;26.576;2022-10-16T12:53:21;100395.66;;;18.38;42.65
38900;BME280;24660;43.238;26.576;2022-10-16T13:01:17;100398.31;;;18.21;43.49
38900;BME280;24660;43.238;26.576;2022-10-16T13:03:48;100400.22;;;18.10;43.67
38900;BME280;24660;43.238;26.576;2022-10-16T13:06:22;100387.63;;;17.92;43.31
38900;BME280;24660;43.238;26.576;2022-10-16T13:13:46;100394.94;;;18.09;43.04
38900;BME280;24660;43.238;26.576;2022-10-16T13:24:14;100422.44;;;17.38;43.43
38900;BME280;24660;43.238;26.576;2022-10-16T13:29:23;100415.41;;;17.84;42.92
38900;BME280;24660;43.238;26.576;2022-10-16T13:31:48;100417.28;;;17.74;42.98
38900;BME280;24660;43.238;26.576;2022-10-16T13:34:15;100410.72;;;17.57;43.33
38900;BME280;24660;43.238;26.576;2022-10-16T13:36:43;100417.00;;;17.58;43.19
38900;BME280;24660;43.238;26.576;2022-10-16T13:44:35;100413.09;;;19.35;40.29
38900;BME280;24660;43.238;26.576;2022-10-16T13:47:02;100424.03;;;20.21;38.96
38900;BME280;24660;43.238;26.576;2022-10-16T13:49:27;100424.75;;;20.57;38.66
38900;BME280;24660;43.238;26.576;2022-10-16T13:51:54;100428.13;;;21.50;36.65
38900;BME280;24660;43.238;26.576;2022-10-16T13:54:20;100427.06;;;21.18;36.53
38900;BME280;24660;43.238;26.576;2022-10-16T13:56:45;100422.00;;;21.64;35.77
38900;BME280;24660;43.238;26.576;2022-10-16T14:01:52;100443.97;;;23.13;34.17
38900;BME280;24660;43.238;26.576;2022-10-16T14:04:19;100438.00;;;22.86;33.64
38900;BME280;24660;43.238;26.576;2022-10-16T14:06:45;100434.66;;;22.68;34.53
38900;BME280;24660;43.238;26.576;2022-10-16T14:09:21;100438.53;;;22.42;34.39
38900;BME280;24660;43.238;26.576;2022-10-16T14:11:49;100434.38;;;22.07;35.16
38900;BME280;24660;43.238;26.576;2022-10-16T14:14:16;100446.31;;;22.54;34.43
38900;BME280;24660;43.238;26.576;2022-10-16T14:16:42;100434.56;;;21.98;34.42
38900;BME280;24660;43.238;26.576;2022-10-16T14:21:50;100445.81;;;21.62;34.27
38900;BME280;24660;43.238;26.576;2022-10-16T14:24:22;100433.88;;;20.48;35.77
38900;BME280;24660;43.238;26.576;2022-10-16T14:26:50;100438.75;;;19.05;37.97
38900;BME280;24660;43.238;26.576;2022-10-16T14:29:17;100430.22;;;17.80;40.11
38900;BME280;24660;43.238;26.576;2022-10-16T14:31:53;100436.66;;;17.50;40.08
38900;BME280;24660;43.238;26.576;2022-10-16T14:37:01;100441.06;;;17.03;42.40
38900;BME280;24660;43.238;26.576;2022-10-16T14:39:32;100442.47;;;16.87;42.39
38900;BME280;24660;43.238;26.576;2022-10-16T14:41:57;100437.69;;;16.60;42.66
38900;BME280;24660;43.238;26.576;2022-10-16T14:44:26;100437.56;;;16.62;43.42
38900;BME280;24660;43.238;26.576;2022-10-16T14:46:52;100446.31;;;17.43;42.11